»·PEaware :: BADGR13 KABQ-KFMN

BADGR13 :: KABQ-KFMN

FLIGHT INFORMATION

Flight Status: Arrived
Operator: Unknown
More flights by this operator :: More flights under this callsign
Pilot: Abraham G. (22221)
Aircraft: BEECH AIRCRAFT T-6A TEXAN
(TEX2)
More flights by this aircraft type
Origin: KABQ Albuquerque Intl Sunport
United States
Destination: KFMN Four Corners Regl
United States
More flights between these airports :: More routes between these airports
Route: +LARGO3 RSK
File this flight plan on PilotEdge
Remarks:
Altitude:
(Current/Filed)
20,000ft
Speed:
(Current/Filed)
280kts
Departed: 11-Jun-20 09:27 AM
Arrived: 11-Jun-20 10:01 AM
Distance/Time
Traveled:
129nm/0:34
Distance/Time
To Go:
Arrived

Flight Plot

Page will automatically refresh every two minutes.

Flight plan parsing failed; only flown route is shown


Map Options




Map Legend


Flown Route
Filed Route
Departure Airport
Arrival Airport
Navaid (VOR, NDB)
Fix

Horizontal Profiles

Position Reports

Time Latitude Longitude Heading Altitude Ground
Speed
11-Jun-20 09:12 35.036494 -106.617602 138 5311ft 0kts
11-Jun-20 09:13 35.036494 -106.617602 138 5311ft 0kts
11-Jun-20 09:14 35.036494 -106.617602 138 5311ft 0kts
11-Jun-20 09:16 35.036494 -106.617602 138 5311ft 0kts
11-Jun-20 09:17 35.036494 -106.617602 138 5311ft 0kts
11-Jun-20 09:18 35.036494 -106.617602 138 5311ft 0kts
11-Jun-20 09:19 35.036294 -106.617393 138 5311ft 12kts
11-Jun-20 09:20 35.032978 -106.619834 224 5309ft 15kts
11-Jun-20 09:21 35.028033 -106.625781 224 5308ft 24kts
11-Jun-20 09:22 35.023461 -106.631268 203 5286ft 0kts
11-Jun-20 09:23 35.023462 -106.631268 203 5286ft 0kts
11-Jun-20 09:24 35.022982 -106.631266 140 5286ft 0kts
11-Jun-20 09:25 35.022531 -106.630258 44 5293ft 0kts
11-Jun-20 09:26 35.022531 -106.630258 44 5293ft 0kts
11-Jun-20 09:27 35.037701 -106.611755 35 5814ft 177kts
11-Jun-20 09:28 35.085474 -106.633746 323 7588ft 228kts
11-Jun-20 09:29 35.146218 -106.678179 326 7699ft 255kts
11-Jun-20 09:30 35.204549 -106.713182 330 10224ft 211kts
11-Jun-20 09:30 35.254034 -106.741128 329 10695ft 259kts
11-Jun-20 09:32 35.321140 -106.791484 312 13753ft 216kts
11-Jun-20 09:32 35.356092 -106.832924 311 16329ft 220kts
11-Jun-20 09:34 35.429461 -106.868526 340 17623ft 277kts
11-Jun-20 09:34 35.494114 -106.887566 345 17677ft 293kts
11-Jun-20 09:35 35.575966 -106.901481 348 17618ft 299kts
11-Jun-20 09:37 35.672077 -106.917589 348 17613ft 300kts
11-Jun-20 09:37 35.740630 -106.927778 349 17871ft 291kts
11-Jun-20 09:39 35.828469 -106.936860 351 19636ft 286kts
11-Jun-20 09:39 35.895916 -106.943503 351 19580ft 297kts
11-Jun-20 09:40 35.978321 -106.949646 353 19611ft 299kts
11-Jun-20 09:41 36.040445 -107.004552 305 19578ft 285kts
11-Jun-20 09:42 36.089989 -107.080729 306 19617ft 285kts
11-Jun-20 09:43 36.139349 -107.157651 305 19603ft 285kts
11-Jun-20 09:44 36.188749 -107.234692 305 19580ft 285kts
11-Jun-20 09:45 36.236759 -107.312949 303 19590ft 285kts
11-Jun-20 09:46 36.282716 -107.392484 303 19652ft 284kts
11-Jun-20 09:47 36.331404 -107.470000 308 19620ft 285kts
11-Jun-20 09:48 36.382804 -107.544961 307 19601ft 287kts
11-Jun-20 09:49 36.432773 -107.621447 304 19655ft 284kts
11-Jun-20 09:50 36.481840 -107.701378 305 18608ft 305kts
11-Jun-20 09:51 36.537273 -107.778322 310 16156ft 293kts
11-Jun-20 09:52 36.600950 -107.836256 340 13432ft 300kts
11-Jun-20 09:53 36.677687 -107.861653 343 10865ft 282kts
11-Jun-20 09:54 36.719694 -107.922604 279 9266ft 228kts
11-Jun-20 09:55 36.727782 -107.990467 276 9059ft 192kts
11-Jun-20 09:56 36.738186 -108.058566 275 8897ft 210kts
11-Jun-20 09:57 36.742289 -108.134559 270 8074ft 208kts
11-Jun-20 09:58 36.742405 -108.190626 267 6218ft 97kts
11-Jun-20 09:59 36.741524 -108.222817 265 5507ft 73kts
11-Jun-20 10:00 36.740731 -108.229198 177 5507ft 0kts
11-Jun-20 10:01 36.739809 -108.228828 80 5507ft 0kts
11-Jun-20 10:02 36.739809 -108.228828 80 5507ft 0kts
11-Jun-20 10:03 36.739809 -108.228828 80 5507ft 0kts
11-Jun-20 10:04 36.739809 -108.228828 80 5507ft 0kts
11-Jun-20 10:05 36.739809 -108.228828 80 5507ft 0kts
11-Jun-20 10:06 36.739809 -108.228828 80 5507ft 0kts

Navigation Log

Ident Type
Flight plan parsing failed, navigation log unavailable